Palm Beach, FL (33480)

10:15 AM EDT on August 26, 2016 (GMT -0400)
Palm Beach, FL | | Change Station

Elev 8 ft 26.71 °N, 80.04 °W | Updated 4 seconds ago

Mostly Cloudy
Mostly Cloudy
87.6 °F
Feels Like 106 °F
N
0.9
Wind Variable Wind from East
Gusts 4.0 mph

Today
High -- | Low -- °F
--% Chance of Precip.
Yesterday
High -- | Low -- °F
Precip. -- in
Pressure 29.98 in
Visibility 10.0 miles
Clouds Scattered Clouds 2400 ft
Scattered Clouds 10000 ft
Mostly Cloudy 25000 ft
Heat Index 106 °F
Dew Point 81 °F
Humidity 81%
Rainfall 0.11 in
Snow Depth Not available.
6:57 AM 7:45 PM
Waning Crescent, 34% visible
METAR KPBI 261353Z 04009KT 10SM SCT024 SCT100 BKN250 30/26 A2998 RMK AO2 SLP151 CB DSNT NE T03000256 $
Pressure 29.98 in
Visibility 10.0 miles
Clouds Scattered Clouds 2400 ft
Scattered Clouds 10000 ft
Mostly Cloudy 25000 ft
Heat Index 106 °F
Dew Point 81 °F
Humidity 81%
Rainfall 0.11 in
Snow Depth Not available.
6:57 AM 7:45 PM
Waning Crescent, 34% visible
METAR KPBI 261353Z 04009KT 10SM SCT024 SCT100 BKN250 30/26 A2998 RMK AO2 SLP151 CB DSNT NE T03000256 $

10-Day Weather Forecast

Almanac

Astronomy

Aug. 26, 2016 Rise Set
Actual Time
Civil Twilight
Nautical Twilight
Astronomical Twilight
Moon
Length of Visible Light
Length of Day
Tomorrow will be .
, % of the Moon is Illuminated

Today's Extremes

State Highs State Lows

Community

WunderPhotos

Upload Photos

1,935,084 photos uploaded!

WunderBlog® & News

Nearby

Air Quality

  Air Quality AQ Index Pollutant
Not available.

Snow Depth

Station Depth Elevation

Earthquake Activity

City Distance Mag. Time & Date
Minimum magnitude displayed is 2.5.

Coastal Water Temperatures

Place Temperature

Stations

Nearby Weather Stations

Station Location Temp. Windchill Dew Point Humidity Wind Precip. Elev Updated Type
                   

Watches & Warnings

There are currently no watches in effect.